Terminal Aerodrome Forecast
Issued by NWS Huntsville, AL

Home | Current Version | Previous Version | Text Only | Print | Product List | Glossary On
Versions: 1 2 3 4 5 6 7 8 9 10 11 12 13 14 15 16 17 18 19 20 21 22 23 24 25 26 27 28 29 30 31
000
FTUS44 KHUN 031731
TAFMSL
TAF
KMSL 031731Z 0318/0418 24010G16KT P6SM -SHRA SCT030 OVC060
      TEMPO 0318/0322 3SM -TSRA BKN025CB
     FM040100 21008KT P6SM VCSH OVC030
     FM040600 22008KT P6SM -SHRA OVC020
      TEMPO 0407/0411 5SM -TSRA BKN008 OVC020CB=

USA.gov is the U.S. government's official web portal to all federal, state and local government web resources and services.